Time;durP1;ratioP1;P1;durP2;ratioP2;P2;SDS_P1;SDS_P2;PMS_P1;PMS_P2;Temp;Humidity;BMP_temperature;BMP_pressure;BME280_temperature;BME280_humidity;BME280_pressure;Samples;Min_cycle;Max_cycle;Signal;HPM_P1;HPM_P2
2021/05/13 00:01:53;;;;;;;4.65;2.05;;;17.60;70.00;;;;;;5033853;28;20546;-64
2021/05/13 00:04:18;;;;;;;4.40;2.40;;;17.50;70.00;;;;;;5034688;28;20037;-66
2021/05/13 00:06:44;;;;;;;3.40;2.00;;;17.50;70.00;;;;;;5033937;28;20393;-65
2021/05/13 00:09:10;;;;;;;4.13;2.20;;;17.50;70.10;;;;;;5033825;28;20147;-64
2021/05/13 00:11:38;;;;;;;4.97;2.35;;;17.50;70.10;;;;;;5034884;28;20481;-64
2021/05/13 00:14:07;;;;;;;3.90;2.20;;;17.50;70.10;;;;;;5036436;28;20035;-65
2021/05/13 00:16:35;;;;;;;5.88;2.40;;;17.50;70.10;;;;;;5035964;28;20029;-64
2021/05/13 00:19:05;;;;;;;4.20;1.83;;;17.50;70.10;;;;;;5042777;28;20036;-64
2021/05/13 00:21:30;;;;;;;3.60;1.90;;;17.50;70.10;;;;;;5047438;28;20040;-65
2021/05/13 00:23:56;;;;;;;4.40;2.10;;;17.50;70.10;;;;;;5015853;28;20026;-65
2021/05/13 00:26:38;;;;;;;3.22;1.90;;;17.50;70.20;;;;;;5034089;28;20039;-66
2021/05/13 00:29:24;;;;;;;4.95;2.08;;;17.50;70.20;;;;;;5030406;28;20029;-64
2021/05/13 00:31:50;;;;;;;3.78;2.03;;;17.50;70.10;;;;;;5043126;28;20428;-66
2021/05/13 00:34:15;;;;;;;5.03;2.22;;;17.40;70.10;;;;;;5033274;28;20026;-64
2021/05/13 00:36:41;;;;;;;4.03;1.83;;;17.40;70.10;;;;;;5034123;28;20025;-64
2021/05/13 00:39:08;;;;;;;12.20;2.20;;;17.40;70.10;;;;;;5043789;28;20396;-64
2021/05/13 00:41:34;;;;;;;3.08;1.65;;;17.40;70.10;;;;;;5039791;28;20032;-65
2021/05/13 00:43:59;;;;;;;3.67;1.88;;;17.40;70.20;;;;;;5032903;28;20034;-65
2021/05/13 00:46:25;;;;;;;4.85;2.20;;;17.40;70.20;;;;;;5015516;28;20037;-66
2021/05/13 00:48:59;;;;;;;3.85;1.92;;;17.40;70.30;;;;;;5033413;28;20049;-64
2021/05/13 00:51:25;;;;;;;3.33;1.75;;;17.40;70.20;;;;;;5035522;28;20484;-63
2021/05/13 00:53:50;;;;;;;3.58;1.90;;;17.40;70.10;;;;;;5018731;28;20033;-64
2021/05/13 00:56:16;;;;;;;3.40;1.80;;;17.40;70.20;;;;;;5021678;28;20026;-64
2021/05/13 00:58:45;;;;;;;3.90;2.00;;;17.40;70.20;;;;;;5032632;28;20037;-64
2021/05/13 01:01:16;;;;;;;4.60;1.80;;;17.40;70.20;;;;;;5014987;28;20026;-65
2021/05/13 01:03:42;;;;;;;3.33;1.80;;;17.40;70.20;;;;;;5014670;28;20074;-63
2021/05/13 01:06:11;;;;;;;4.15;1.80;;;17.40;70.20;;;;;;5033320;28;20036;-64
2021/05/13 01:08:37;;;;;;;4.10;1.95;;;17.40;70.30;;;;;;5035762;28;20114;-64
2021/05/13 01:11:03;;;;;;;3.63;1.77;;;17.40;70.20;;;;;;5033185;28;20083;-62
2021/05/13 01:13:31;;;;;;;3.83;1.80;;;17.30;70.20;;;;;;5032680;28;20404;-64
2021/05/13 01:16:23;;;;;;;5.85;1.88;;;17.40;70.20;;;;;;5036746;28;20009;-64
2021/05/13 01:18:48;;;;;;;4.32;2.15;;;17.30;70.20;;;;;;5009275;28;20037;-64
2021/05/13 01:21:14;;;;;;;2.67;1.58;;;17.30;70.30;;;;;;5037959;28;20021;-64
2021/05/13 01:23:41;;;;;;;4.50;1.95;;;17.30;70.30;;;;;;5040454;28;20039;-67
2021/05/13 01:26:08;;;;;;;3.00;1.65;;;17.30;70.20;;;;;;5038090;28;20026;-64
2021/05/13 01:28:33;;;;;;;3.35;1.65;;;17.30;70.20;;;;;;5032364;28;20029;-65
2021/05/13 01:30:59;;;;;;;4.45;1.77;;;17.30;70.30;;;;;;5019803;28;20028;-63
2021/05/13 01:33:26;;;;;;;4.15;1.90;;;17.30;70.40;;;;;;5021769;28;20021;-65
2021/05/13 01:35:52;;;;;;;2.95;1.60;;;17.30;70.40;;;;;;5038408;28;20493;-64
2021/05/13 01:38:21;;;;;;;3.95;1.60;;;17.30;70.30;;;;;;5022295;28;20017;-63
2021/05/13 01:40:55;;;;;;;4.20;1.95;;;17.30;70.30;;;;;;5019344;28;20030;-64
2021/05/13 01:43:23;;;;;;;3.67;1.90;;;17.30;70.30;;;;;;5031922;28;20408;-66
2021/05/13 01:45:49;;;;;;;3.95;1.60;;;17.30;70.40;;;;;;5013896;28;20128;-64
2021/05/13 01:48:14;;;;;;;3.53;1.80;;;17.30;70.30;;;;;;5049465;28;20080;-64
2021/05/13 01:50:40;;;;;;;2.83;1.50;;;17.20;70.30;;;;;;5033480;28;20452;-64
2021/05/13 01:53:07;;;;;;;2.65;1.55;;;17.30;70.40;;;;;;5040813;28;20033;-63
2021/05/13 01:55:34;;;;;;;3.95;1.70;;;17.30;70.40;;;;;;5034924;28;20038;-64
2021/05/13 01:57:59;;;;;;;2.55;1.42;;;17.30;70.40;;;;;;5032632;28;20393;-64
2021/05/13 02:00:25;;;;;;;3.47;1.65;;;17.30;70.40;;;;;;5036857;28;20034;-64
2021/05/13 02:02:51;;;;;;;4.13;1.70;;;17.30;70.40;;;;;;5031939;28;20083;-64
2021/05/13 02:05:18;;;;;;;3.13;1.50;;;17.30;70.50;;;;;;5031208;28;20465;-65
2021/05/13 02:07:44;;;;;;;3.80;1.70;;;17.20;70.50;;;;;;5031684;28;20032;-65
2021/05/13 02:10:11;;;;;;;2.55;1.55;;;17.20;70.40;;;;;;5035468;28;20484;-64
2021/05/13 02:12:38;;;;;;;3.45;1.55;;;17.30;70.60;;;;;;5034086;28;20032;-63
2021/05/13 02:15:09;;;;;;;4.40;1.65;;;17.20;70.50;;;;;;5037287;28;20018;-66
2021/05/13 02:17:35;;;;;;;5.40;1.75;;;17.20;70.50;;;;;;5039750;28;20391;-63
2021/05/13 02:20:01;;;;;;;3.40;1.80;;;17.20;70.50;;;;;;5030659;28;20040;-63
2021/05/13 02:22:26;;;;;;;3.05;1.73;;;17.20;70.40;;;;;;5028418;28;20017;-64
2021/05/13 02:24:52;;;;;;;4.15;1.92;;;17.20;70.50;;;;;;5021154;28;20029;-65
2021/05/13 02:27:18;;;;;;;3.25;1.60;;;17.20;70.50;;;;;;5045545;28;20064;-65
2021/05/13 02:29:43;;;;;;;3.88;1.77;;;17.20;70.50;;;;;;5030248;28;20040;-65
2021/05/13 02:32:09;;;;;;;3.72;1.83;;;17.20;70.50;;;;;;5023194;28;20026;-64
2021/05/13 02:34:34;;;;;;;4.80;1.55;;;17.20;70.60;;;;;;5015731;28;20026;-64
2021/05/13 02:37:00;;;;;;;3.58;1.70;;;17.20;70.50;;;;;;5013816;28;20025;-64
2021/05/13 02:39:26;;;;;;;5.15;2.00;;;17.20;70.60;;;;;;5045386;28;20032;-65
2021/05/13 02:41:51;;;;;;;5.35;2.13;;;17.20;70.50;;;;;;5020755;28;20033;-64
2021/05/13 02:44:17;;;;;;;3.83;1.90;;;17.20;70.50;;;;;;5034331;28;20100;-64
2021/05/13 02:46:42;;;;;;;4.82;1.88;;;17.20;70.50;;;;;;5016829;28;20033;-63
2021/05/13 02:49:08;;;;;;;3.28;1.70;;;17.20;70.50;;;;;;5033457;28;20025;-65
2021/05/13 02:51:33;;;;;;;4.72;1.88;;;17.20;70.50;;;;;;5039610;28;20565;-64
2021/05/13 02:53:59;;;;;;;3.00;1.60;;;17.20;70.50;;;;;;5038990;28;20112;-65
2021/05/13 02:56:24;;;;;;;4.57;1.95;;;17.20;70.60;;;;;;5034259;28;20056;-64
2021/05/13 02:58:51;;;;;;;4.70;2.17;;;17.20;70.50;;;;;;5013378;28;20029;-64
2021/05/13 03:01:29;;;;;;;4.15;1.67;;;17.10;70.40;;;;;;5039386;28;20029;-64
2021/05/13 03:03:55;;;;;;;2.78;1.70;;;17.10;70.50;;;;;;5030763;28;20031;-64
2021/05/13 03:06:22;;;;;;;4.10;1.75;;;17.10;70.50;;;;;;5044430;28;20033;-65
2021/05/13 03:08:56;;;;;;;3.58;1.90;;;17.10;70.50;;;;;;5029913;28;20029;-64
2021/05/13 03:11:23;;;;;;;2.97;1.48;;;17.10;70.50;;;;;;5027380;28;20037;-63
2021/05/13 03:13:51;;;;;;;5.43;1.80;;;17.10;70.50;;;;;;5035181;28;20036;-63
2021/05/13 03:16:17;;;;;;;3.40;1.98;;;17.10;70.50;;;;;;5036878;28;20091;-64
2021/05/13 03:18:46;;;;;;;3.63;1.90;;;17.10;70.50;;;;;;5034755;28;20443;-64
2021/05/13 03:21:19;;;;;;;5.15;2.05;;;17.10;70.50;;;;;;5035995;28;20033;-64
2021/05/13 03:26:10;;;;;;;3.25;1.85;;;17.10;71.10;;;;;;5050933;28;20462;-66
2021/05/13 03:28:36;;;;;;;3.88;1.77;;;17.10;70.50;;;;;;5035931;28;20557;-63
2021/05/13 03:31:01;;;;;;;3.42;1.77;;;17.10;70.50;;;;;;5038996;28;20047;-65
2021/05/13 03:33:27;;;;;;;3.67;1.77;;;17.10;70.50;;;;;;5044095;28;20484;-64
2021/05/13 03:35:52;;;;;;;3.28;1.77;;;17.00;70.50;;;;;;5048230;28;20021;-65
2021/05/13 03:38:18;;;;;;;4.40;2.00;;;17.00;70.60;;;;;;5042613;28;20036;-65
2021/05/13 03:40:44;;;;;;;3.08;1.77;;;17.00;70.60;;;;;;5038851;28;20435;-64
2021/05/13 03:43:09;;;;;;;3.85;1.73;;;17.00;70.30;;;;;;5054372;28;20389;-64
2021/05/13 03:45:35;;;;;;;4.38;1.85;;;17.00;70.70;;;;;;5041811;28;20029;-63
2021/05/13 03:48:02;;;;;;;4.63;1.90;;;17.00;70.70;;;;;;5035513;28;20076;-64
2021/05/13 03:50:30;;;;;;;4.43;1.80;;;17.00;70.70;;;;;;5019124;28;20120;-63
2021/05/13 03:52:56;;;;;;;3.72;1.60;;;17.00;70.70;;;;;;5028216;28;20121;-64
2021/05/13 03:55:22;;;;;;;2.78;1.75;;;17.00;70.80;;;;;;5025335;28;20079;-66
2021/05/13 03:57:49;;;;;;;3.13;1.60;;;17.00;70.70;;;;;;5034034;28;20029;-65
2021/05/13 04:00:17;;;;;;;4.50;2.00;;;17.00;70.80;;;;;;5038203;28;20033;-64
2021/05/13 04:02:43;;;;;;;5.32;2.05;;;17.00;70.80;;;;;;5033766;28;20108;-64
2021/05/13 04:05:09;;;;;;;5.28;1.60;;;17.00;70.70;;;;;;5015429;28;20121;-64
2021/05/13 04:07:37;;;;;;;4.28;1.95;;;17.00;70.80;;;;;;5033703;28;20568;-64
2021/05/13 04:10:07;;;;;;;2.80;1.60;;;17.00;70.80;;;;;;5033886;28;20134;-63
2021/05/13 04:12:37;;;;;;;2.97;1.67;;;17.00;70.90;;;;;;5015832;28;20026;-65
2021/05/13 04:15:04;;;;;;;4.15;1.60;;;17.00;71.00;;;;;;5033188;28;20056;-64
2021/05/13 04:17:30;;;;;;;4.90;2.10;;;17.00;71.00;;;;;;5034214;28;20124;-64
2021/05/13 04:19:55;;;;;;;3.10;1.73;;;17.00;71.00;;;;;;5033644;28;20505;-64
2021/05/13 04:22:21;;;;;;;2.10;1.50;;;16.90;70.90;;;;;;5033262;28;20090;-64
2021/05/13 04:24:46;;;;;;;4.75;1.90;;;17.00;71.00;;;;;;5033372;28;20037;-64
2021/05/13 04:27:12;;;;;;;4.13;1.77;;;17.00;71.00;;;;;;5037113;28;20499;-65
2021/05/13 04:29:37;;;;;;;3.25;1.50;;;17.00;71.00;;;;;;5033409;28;20052;-62
2021/05/13 04:32:03;;;;;;;2.50;1.60;;;17.00;71.00;;;;;;5015817;28;20029;-63
2021/05/13 04:34:28;;;;;;;5.13;1.70;;;17.00;71.00;;;;;;4995962;28;20018;-63
2021/05/13 04:36:54;;;;;;;3.20;1.73;;;17.00;71.00;;;;;;5043098;28;20048;-64
2021/05/13 04:39:19;;;;;;;3.75;1.73;;;17.00;70.90;;;;;;5034234;28;20542;-63
2021/05/13 04:41:45;;;;;;;2.88;1.55;;;17.00;70.90;;;;;;5038483;28;20519;-66
2021/05/13 04:44:10;;;;;;;3.33;1.50;;;17.00;70.90;;;;;;5033204;28;20041;-64
2021/05/13 04:46:37;;;;;;;2.70;1.58;;;17.00;70.90;;;;;;5048317;28;20036;-64
2021/05/13 04:49:16;;;;;;;3.78;1.73;;;17.00;71.00;;;;;;5033782;28;20508;-64
2021/05/13 04:51:43;;;;;;;3.95;1.70;;;17.00;71.00;;;;;;5020799;28;20060;-64
2021/05/13 04:54:10;;;;;;;3.50;1.73;;;17.00;71.50;;;;;;5044771;28;20028;-66
2021/05/13 04:56:36;;;;;;;2.38;1.30;;;17.00;71.00;;;;;;5014732;28;20055;-66
2021/05/13 04:59:02;;;;;;;3.35;1.65;;;17.00;71.00;;;;;;5015594;28;20034;-63
2021/05/13 05:01:27;;;;;;;3.30;1.73;;;17.00;71.00;;;;;;5044213;28;20037;-65
2021/05/13 05:03:53;;;;;;;3.92;1.60;;;17.00;71.00;;;;;;5033265;28;20078;-64
2021/05/13 05:06:19;;;;;;;3.13;1.38;;;16.80;70.90;;;;;;5032820;28;20029;-66
2021/05/13 05:08:45;;;;;;;3.90;1.88;;;17.00;71.00;;;;;;5035572;28;20045;-67
2021/05/13 05:11:12;;;;;;;3.13;1.50;;;17.00;71.00;;;;;;5050560;22;20791;-69
2021/05/13 05:13:37;;;;;;;3.42;1.70;;;17.00;71.00;;;;;;5031271;28;20033;-70
2021/05/13 05:16:03;;;;;;;2.90;1.48;;;17.00;71.00;;;;;;5014519;28;20021;-70
2021/05/13 05:18:29;;;;;;;3.13;1.63;;;17.00;70.90;;;;;;5032270;28;20053;-70
2021/05/13 05:20:55;;;;;;;3.47;1.48;;;17.00;71.00;;;;;;5032206;28;20029;-69
2021/05/13 05:23:21;;;;;;;3.53;1.65;;;17.00;71.00;;;;;;5031837;28;20021;-73
2021/05/13 05:25:47;;;;;;;2.83;1.52;;;17.10;70.90;;;;;;5012957;28;20116;-71
2021/05/13 05:28:13;;;;;;;2.83;1.50;;;17.00;70.60;;;;;;5013601;28;20037;-71
2021/05/13 05:30:40;;;;;;;3.05;1.45;;;17.10;70.70;;;;;;5013384;28;20140;-71
2021/05/13 05:33:08;;;;;;;2.97;1.67;;;17.10;70.50;;;;;;5031849;28;20036;-71
2021/05/13 05:35:35;;;;;;;2.92;1.58;;;17.20;70.30;;;;;;5013632;28;20025;-70
2021/05/13 05:38:01;;;;;;;3.20;1.50;;;17.20;70.10;;;;;;5032161;28;20029;-70
2021/05/13 05:40:27;;;;;;;2.40;1.50;;;17.30;70.00;;;;;;5031609;28;20033;-70
2021/05/13 05:42:53;;;;;;;4.53;1.60;;;17.30;69.80;;;;;;5014020;28;20425;-70
2021/05/13 05:45:21;;;;;;;4.25;1.65;;;17.40;69.90;;;;;;5013540;28;20032;-71
2021/05/13 05:47:51;;;;;;;5.13;1.70;;;17.40;69.40;;;;;;5013436;28;20120;-70
2021/05/13 05:50:18;;;;;;;3.63;1.52;;;17.40;69.10;;;;;;5013117;28;20056;-73
2021/05/13 05:52:44;;;;;;;4.43;1.80;;;17.50;69.10;;;;;;5013101;28;20497;-70
2021/05/13 05:55:10;;;;;;;2.90;1.60;;;17.50;68.80;;;;;;5031262;28;20056;-70
2021/05/13 05:57:36;;;;;;;4.20;1.63;;;17.60;68.80;;;;;;5014276;28;20029;-71
2021/05/13 06:00:05;;;;;;;3.72;1.55;;;17.70;68.70;;;;;;5009831;28;20025;-70
2021/05/13 06:02:30;;;;;;;5.57;2.05;;;17.80;67.90;;;;;;5013830;28;20034;-72
2021/05/13 06:04:56;;;;;;;4.80;2.30;;;17.80;67.50;;;;;;5027890;28;20091;-70
2021/05/13 06:07:22;;;;;;;7.40;2.50;;;17.90;67.20;;;;;;5030839;28;20033;-70
2021/05/13 06:09:48;;;;;;;8.15;2.42;;;17.90;67.10;;;;;;5013789;28;20408;-70
2021/05/13 06:12:13;;;;;;;7.20;2.20;;;18.00;67.00;;;;;;5036135;28;20021;-70
2021/05/13 06:14:40;;;;;;;6.13;1.90;;;18.10;66.90;;;;;;5017258;28;20021;-69
2021/05/13 06:17:06;;;;;;;5.65;1.80;;;18.20;67.10;;;;;;5013289;28;20033;-70
2021/05/13 06:19:31;;;;;;;5.68;1.70;;;18.20;66.50;;;;;;5013549;28;20499;-71
2021/05/13 06:21:57;;;;;;;5.68;1.95;;;18.30;66.40;;;;;;5011389;28;20025;-70
2021/05/13 06:24:23;;;;;;;3.92;1.85;;;18.40;66.00;;;;;;5026110;28;20029;-70
2021/05/13 06:27:03;;;;;;;4.47;1.70;;;18.50;65.90;;;;;;5031020;28;20033;-72
2021/05/13 06:29:29;;;;;;;5.43;1.60;;;18.60;65.50;;;;;;5030942;28;20075;-70
2021/05/13 06:31:56;;;;;;;5.65;1.45;;;18.80;65.30;;;;;;5013282;28;20033;-71
2021/05/13 06:34:21;;;;;;;3.22;1.45;;;18.80;64.60;;;;;;5012508;28;20065;-70
2021/05/13 06:36:47;;;;;;;4.53;1.63;;;18.90;64.20;;;;;;5030997;28;20017;-71
2021/05/13 06:39:12;;;;;;;6.88;1.70;;;19.00;64.10;;;;;;5005784;28;20517;-73
2021/05/13 06:41:40;;;;;;;5.85;1.90;;;19.10;63.70;;;;;;5028565;28;20104;-72
2021/05/13 06:44:06;;;;;;;9.02;2.30;;;19.20;64.20;;;;;;5012011;28;20068;-73
2021/05/13 06:46:31;;;;;;;9.98;2.63;;;19.30;63.40;;;;;;5013286;28;20060;-71
2021/05/13 06:48:57;;;;;;;7.97;2.28;;;19.40;63.40;;;;;;5027511;28;20030;-71
2021/05/13 06:51:22;;;;;;;7.00;2.05;;;19.50;63.20;;;;;;5018288;28;20034;-72
2021/05/13 06:53:49;;;;;;;6.10;2.00;;;19.60;62.70;;;;;;5012571;28;20029;-72
2021/05/13 06:56:15;;;;;;;8.43;1.77;;;19.60;62.60;;;;;;5030642;28;20045;-72
2021/05/13 06:58:41;;;;;;;5.90;1.80;;;19.70;62.30;;;;;;5021727;28;20104;-72
2021/05/13 07:01:07;;;;;;;8.85;1.90;;;19.80;61.60;;;;;;5029817;28;20421;-74
2021/05/13 07:03:32;;;;;;;6.10;2.08;;;19.90;61.50;;;;;;5011193;28;20031;-71
2021/05/13 07:05:59;;;;;;;12.68;2.47;;;20.00;61.00;;;;;;5029974;28;20052;-72
2021/05/13 07:08:24;;;;;;;11.15;2.10;;;20.10;61.00;;;;;;5025164;28;20064;-70
2021/05/13 07:10:50;;;;;;;12.38;2.42;;;20.20;61.00;;;;;;5032089;28;20029;-75
2021/05/13 07:13:15;;;;;;;12.73;2.95;;;20.20;60.90;;;;;;5007254;28;20079;-77
2021/05/13 07:15:41;;;;;;;15.40;2.78;;;20.30;60.90;;;;;;5009082;28;20029;-73
2021/05/13 07:18:14;;;;;;;10.52;1.73;;;20.40;60.80;;;;;;5031053;28;20032;-73
2021/05/13 07:20:40;;;;;;;14.55;2.47;;;20.50;60.00;;;;;;5028123;28;20030;-72
2021/05/13 07:23:06;;;;;;;12.88;2.17;;;20.60;59.60;;;;;;5027731;28;20034;-72
2021/05/13 07:25:32;;;;;;;15.70;2.20;;;20.60;60.20;;;;;;5027962;28;20408;-71
2021/05/13 07:27:59;;;;;;;12.18;2.50;;;20.80;60.00;;;;;;5028562;28;20079;-76
2021/05/13 07:30:24;;;;;;;10.18;2.33;;;20.90;59.90;;;;;;5026164;28;20108;-76
2021/05/13 07:32:50;;;;;;;9.70;2.67;;;21.00;59.30;;;;;;5010392;28;20137;-72
2021/05/13 07:35:20;;;;;;;9.73;2.03;;;21.00;59.30;;;;;;5008205;28;20041;-76
2021/05/13 07:37:46;;;;;;;8.30;1.98;;;21.10;59.60;;;;;;5010437;28;20026;-72
2021/05/13 07:40:13;;;;;;;9.73;1.70;;;21.10;58.90;;;;;;5029252;28;20075;-76
2021/05/13 07:42:39;;;;;;;8.60;1.90;;;21.20;58.40;;;;;;5030132;28;20032;-73
2021/05/13 07:45:06;;;;;;;7.40;1.90;;;21.30;58.80;;;;;;5017430;28;20043;-74
2021/05/13 07:47:37;;;;;;;9.00;2.20;;;21.30;58.40;;;;;;5044181;28;20041;-74
2021/05/13 07:50:08;;;;;;;8.27;2.10;;;21.40;57.60;;;;;;5030038;28;20025;-74
2021/05/13 07:52:34;;;;;;;5.95;2.20;;;21.40;57.50;;;;;;5031595;28;20374;-74
2021/05/13 07:55:00;;;;;;;10.52;3.75;;;21.50;57.60;;;;;;5031486;28;20034;-74
2021/05/13 07:57:26;;;;;;;13.63;5.32;;;21.60;57.40;;;;;;5014482;28;20459;-75
2021/05/13 07:59:52;;;;;;;21.00;10.65;;;21.60;57.60;;;;;;5015909;28;20025;-76
2021/05/13 08:02:17;;;;;;;24.10;9.75;;;21.60;55.90;;;;;;5033425;28;20025;-72
2021/05/13 08:04:43;;;;;;;21.40;10.35;;;21.50;56.10;;;;;;5031381;28;20500;-73
2021/05/13 08:07:08;;;;;;;20.95;10.48;;;21.70;55.50;;;;;;5033274;28;20021;-72
2021/05/13 08:09:34;;;;;;;17.35;8.43;;;21.80;56.00;;;;;;5033726;28;20551;-72
2021/05/13 08:12:00;;;;;;;16.10;8.98;;;22.00;56.00;;;;;;5033360;28;20554;-72
2021/05/13 08:14:25;;;;;;;18.38;9.63;;;22.20;55.70;;;;;;5032834;28;20025;-74
2021/05/13 08:16:51;;;;;;;18.00;9.88;;;22.20;55.50;;;;;;5033674;28;20034;-73
2021/05/13 08:19:16;;;;;;;16.80;8.63;;;22.30;55.50;;;;;;5014426;28;20121;-75
2021/05/13 08:21:42;;;;;;;12.15;6.05;;;22.40;55.50;;;;;;5030552;28;20519;-73
2021/05/13 08:24:07;;;;;;;16.65;9.48;;;22.50;53.30;;;;;;5032879;28;20041;-74
2021/05/13 08:26:33;;;;;;;19.52;8.05;;;22.60;54.80;;;;;;5033116;28;20029;-67
2021/05/13 08:28:58;;;;;;;14.73;7.13;;;22.70;54.80;;;;;;5011838;28;20030;-68
2021/05/13 08:31:24;;;;;;;17.83;6.95;;;22.70;53.50;;;;;;5001257;28;20540;-69
2021/05/13 08:33:49;;;;;;;15.63;7.68;;;22.70;53.30;;;;;;5007377;28;20026;-75
2021/05/13 08:36:15;;;;;;;15.60;7.30;;;22.70;53.80;;;;;;5014992;28;20033;-73
2021/05/13 08:38:41;;;;;;;16.40;7.07;;;22.70;53.40;;;;;;5033362;28;20496;-70
2021/05/13 08:41:06;;;;;;;20.00;7.13;;;22.70;54.10;;;;;;5032653;28;20033;-69
2021/05/13 08:43:32;;;;;;;14.65;7.03;;;22.70;54.30;;;;;;5014750;28;20033;-70
2021/05/13 08:45:58;;;;;;;17.20;7.60;;;22.90;53.50;;;;;;5033048;28;20450;-69
2021/05/13 08:48:27;;;;;;;13.82;5.63;;;22.90;53.50;;;;;;5031360;28;20041;-70
2021/05/13 08:50:52;;;;;;;16.08;6.10;;;23.00;53.40;;;;;;5015196;28;20025;-68
2021/05/13 08:53:20;;;;;;;13.00;5.65;;;23.00;53.10;;;;;;5033104;28;20146;-67
2021/05/13 08:55:45;;;;;;;11.98;5.22;;;22.90;53.80;;;;;;5016335;28;20488;-69
2021/05/13 08:58:11;;;;;;;13.45;5.32;;;23.00;53.90;;;;;;5053092;28;20036;-70
2021/05/13 09:00:36;;;;;;;10.88;4.70;;;23.10;53.40;;;;;;5038831;28;20108;-73
2021/05/13 09:03:02;;;;;;;15.65;6.22;;;23.10;53.70;;;;;;5029078;28;20029;-69
2021/05/13 09:05:28;;;;;;;12.63;4.25;;;23.30;52.60;;;;;;5031369;28;20049;-68
2021/05/13 09:07:54;;;;;;;13.90;4.55;;;23.40;52.60;;;;;;5031369;28;20029;-69
2021/05/13 09:10:20;;;;;;;15.05;5.10;;;23.50;52.40;;;;;;5027026;28;20084;-69
2021/05/13 09:12:47;;;;;;;14.07;4.78;;;23.50;52.40;;;;;;4996720;28;20027;-69
2021/05/13 09:15:21;;;;;;;14.25;4.53;;;23.50;52.00;;;;;;5002722;28;20034;-69
2021/05/13 09:18:01;;;;;;;16.20;5.10;;;23.60;52.40;;;;;;5031338;28;20017;-73
2021/05/13 09:20:28;;;;;;;14.70;3.97;;;23.60;52.00;;;;;;5008628;28;20037;-70
2021/05/13 09:23:12;;;;;;;12.48;4.22;;;23.60;52.10;;;;;;5022104;28;20029;-70
2021/05/13 09:25:38;;;;;;;11.38;4.50;;;23.70;51.80;;;;;;5016844;28;20053;-70
2021/05/13 09:28:04;;;;;;;9.32;3.47;;;23.70;51.60;;;;;;4995304;28;20525;-70
2021/05/13 09:30:30;;;;;;;12.75;4.25;;;23.70;51.00;;;;;;5027437;28;20032;-69
2021/05/13 09:33:01;;;;;;;8.65;3.15;;;23.70;50.80;;;;;;5004892;28;20021;-69
2021/05/13 09:35:31;;;;;;;14.38;4.43;;;23.80;51.60;;;;;;5027412;28;20025;-69
2021/05/13 09:38:04;;;;;;;10.38;3.08;;;23.90;51.40;;;;;;5031204;28;20116;-69
2021/05/13 09:40:41;;;;;;;11.02;3.22;;;23.60;51.00;;;;;;5030961;28;20032;-70
2021/05/13 09:43:19;;;;;;;10.50;3.17;;;23.40;51.60;;;;;;5012597;28;20049;-71
2021/05/13 09:45:47;;;;;;;9.07;3.28;;;23.10;52.40;;;;;;5012272;28;20025;-68
2021/05/13 09:48:33;;;;;;;8.15;2.97;;;22.80;52.70;;;;;;5012582;28;20168;-68
2021/05/13 09:51:24;;;;;;;9.50;2.85;;;22.60;53.20;;;;;;5014891;28;20120;-70
2021/05/13 09:54:16;;;;;;;8.43;2.88;;;22.50;53.70;;;;;;5014254;28;20025;-70
2021/05/13 09:56:42;;;;;;;11.00;3.15;;;22.30;53.70;;;;;;5013621;28;20021;-67
2021/05/13 09:59:27;;;;;;;15.70;3.17;;;22.20;53.80;;;;;;5030244;28;20022;-69
2021/05/13 10:01:53;;;;;;;13.20;3.13;;;22.10;54.40;;;;;;5031247;28;20104;-70
2021/05/13 10:04:19;;;;;;;9.75;2.90;;;22.20;54.60;;;;;;5013337;28;20031;-68
2021/05/13 10:06:46;;;;;;;10.38;2.70;;;22.30;54.60;;;;;;5031235;28;20033;-68
2021/05/13 10:09:15;;;;;;;8.65;3.03;;;22.30;54.40;;;;;;5021215;28;20030;-68
2021/05/13 10:11:49;;;;;;;14.35;3.33;;;22.70;53.90;;;;;;5028059;28;20095;-71
2021/05/13 10:14:14;;;;;;;11.02;2.97;;;23.10;52.50;;;;;;5024421;28;20049;-68
2021/05/13 10:16:42;;;;;;;14.30;3.33;;;23.40;52.50;;;;;;5021066;28;20501;-75
2021/05/13 10:19:13;;;;;;;19.63;4.28;;;23.50;51.80;;;;;;5019077;28;20028;-69
2021/05/13 10:21:42;;;;;;;12.80;3.27;;;23.70;51.60;;;;;;5033133;28;20033;-69
2021/05/13 10:24:11;;;;;;;30.90;4.32;;;23.80;50.90;;;;;;5024806;28;20256;-70
2021/05/13 10:26:36;;;;;;;13.65;3.33;;;23.80;51.40;;;;;;5029332;28;20021;-70
2021/05/13 10:29:22;;;;;;;14.07;3.20;;;23.80;51.00;;;;;;5028533;28;20382;-72
2021/05/13 10:32:20;;;;;;;15.60;3.35;;;23.90;50.90;;;;;;5030067;28;20457;-72
2021/05/13 10:34:58;;;;;;;13.02;3.20;;;24.00;50.70;;;;;;5029017;28;20049;-75
2021/05/13 10:37:37;;;;;;;10.40;3.35;;;23.90;51.20;;;;;;5030028;28;20021;-76
2021/05/13 10:40:25;;;;;;;11.77;2.63;;;24.10;50.80;;;;;;5010844;28;20401;-77
2021/05/13 10:43:05;;;;;;;15.25;3.30;;;24.00;50.80;;;;;;5012837;28;20498;-76
2021/05/13 10:45:38;;;;;;;11.70;2.70;;;24.00;51.00;;;;;;5024441;28;20017;-74
2021/05/13 10:48:22;;;;;;;13.52;2.75;;;24.10;50.80;;;;;;5012038;28;20103;-75
2021/05/13 10:51:02;;;;;;;16.92;3.22;;;23.80;50.70;;;;;;5038286;28;20109;-74
2021/05/13 10:53:39;;;;;;;9.77;2.80;;;23.80;51.20;;;;;;5024136;28;20032;-76
2021/05/13 10:56:22;;;;;;;8.48;2.70;;;23.80;51.10;;;;;;5036556;28;20044;-75
2021/05/13 10:59:07;;;;;;;12.43;2.55;;;23.50;51.60;;;;;;5026427;28;20096;-70
2021/05/13 11:01:41;;;;;;;7.30;2.50;;;23.40;52.10;;;;;;5011220;28;20041;-76
2021/05/13 11:04:22;;;;;;;10.65;3.20;;;23.50;51.70;;;;;;5030304;28;20122;-74
2021/05/13 11:06:59;;;;;;;7.90;2.90;;;23.40;52.10;;;;;;5034119;28;20040;-73
2021/05/13 11:09:40;;;;;;;8.93;2.40;;;23.40;52.10;;;;;;5020296;28;20473;-76
2021/05/13 11:12:11;;;;;;;8.63;2.40;;;23.40;52.50;;;;;;5026410;28;20030;-70
2021/05/13 11:20:33;;;;;;;12.55;3.63;;;23.30;52.10;;;;;;5023240;28;20038;-70
2021/05/13 11:23:10;;;;;;;13.80;3.45;;;23.10;52.30;;;;;;5003748;28;20026;-70
2021/05/13 11:25:37;;;;;;;17.58;3.90;;;22.80;52.10;;;;;;5018953;28;20068;-73
2021/05/13 11:28:41;;;;;;;16.63;3.42;;;22.80;53.10;;;;;;5010043;28;20385;-70
2021/05/13 11:31:07;;;;;;;31.88;3.65;;;23.00;53.10;;;;;;5007467;28;20041;-71
2021/05/13 11:33:42;;;;;;;31.23;4.50;;;23.20;53.20;;;;;;5024924;28;20033;-71
2021/05/13 11:36:10;;;;;;;20.40;4.28;;;23.10;53.50;;;;;;5009746;28;20030;-75
2021/05/13 11:38:37;;;;;;;21.60;4.53;;;22.90;53.50;;;;;;5007155;28;20116;-69
2021/05/13 11:41:03;;;;;;;18.52;4.18;;;22.80;53.50;;;;;;5017586;28;20061;-70
2021/05/13 11:43:34;;;;;;;24.95;3.60;;;22.90;53.30;;;;;;5029706;28;20500;-68
2021/05/13 11:46:05;;;;;;;11.57;3.40;;;22.90;52.90;;;;;;5015911;28;20068;-68
2021/05/13 11:48:42;;;;;;;14.13;3.40;;;22.70;53.30;;;;;;5027702;28;20098;-68
2021/05/13 11:51:10;;;;;;;13.80;3.20;;;22.70;53.40;;;;;;5013637;28;20037;-68
2021/05/13 11:53:38;;;;;;;13.48;3.17;;;22.60;53.50;;;;;;5033974;28;20026;-68
2021/05/13 11:56:05;;;;;;;10.95;2.63;;;22.50;53.70;;;;;;5016405;28;20021;-70
2021/05/13 11:58:47;;;;;;;10.63;2.50;;;22.40;54.00;;;;;;5016663;28;20025;-69
2021/05/13 12:01:16;;;;;;;9.18;2.80;;;22.40;54.20;;;;;;5016531;28;20102;-70
2021/05/13 12:03:43;;;;;;;9.05;2.35;;;22.40;54.10;;;;;;5016224;28;20152;-69
2021/05/13 12:06:08;;;;;;;10.60;2.70;;;22.40;54.10;;;;;;5034272;28;20025;-68
2021/05/13 12:08:35;;;;;;;8.85;2.83;;;22.40;54.20;;;;;;5016537;28;20025;-68
2021/05/13 12:11:01;;;;;;;7.95;2.25;;;22.40;54.20;;;;;;5016087;28;20160;-67
2021/05/13 12:13:28;;;;;;;9.43;2.72;;;22.30;54.30;;;;;;5016160;28;20029;-68
2021/05/13 12:16:04;;;;;;;8.93;2.20;;;22.30;54.40;;;;;;5016195;28;20029;-68
2021/05/13 12:18:30;;;;;;;9.32;2.20;;;22.20;54.70;;;;;;5016306;28;20028;-68
2021/05/13 12:20:57;;;;;;;8.77;2.30;;;22.20;54.60;;;;;;5016210;28;20034;-68
2021/05/13 12:23:23;;;;;;;8.85;2.10;;;22.20;54.70;;;;;;5016008;28;20033;-68
2021/05/13 12:25:49;;;;;;;12.80;2.40;;;22.20;54.70;;;;;;5033735;28;20076;-68
2021/05/13 12:28:17;;;;;;;6.28;2.05;;;22.20;55.00;;;;;;5016276;28;20056;-68
2021/05/13 12:30:56;;;;;;;6.78;1.77;;;22.10;55.00;;;;;;5015898;28;20021;-67
2021/05/13 12:33:28;;;;;;;6.80;2.00;;;22.10;55.10;;;;;;5015961;28;20542;-68
2021/05/13 12:35:54;;;;;;;4.57;1.95;;;22.10;55.10;;;;;;5015938;28;20511;-68
2021/05/13 12:38:22;;;;;;;8.23;2.17;;;22.00;55.10;;;;;;5015337;28;20021;-68
2021/05/13 12:41:04;;;;;;;7.45;1.90;;;22.00;55.30;;;;;;5015861;28;20025;-68
2021/05/13 12:43:30;;;;;;;5.68;1.95;;;22.00;55.30;;;;;;5015635;28;20036;-68
2021/05/13 12:45:55;;;;;;;5.80;2.30;;;22.00;55.40;;;;;;5015792;28;20029;-68
2021/05/13 12:48:23;;;;;;;8.48;2.15;;;21.90;55.50;;;;;;5033545;28;20052;-68
2021/05/13 12:50:55;;;;;;;4.47;1.77;;;21.90;55.60;;;;;;5015521;28;20083;-68
2021/05/13 12:53:21;;;;;;;5.85;2.33;;;21.90;55.60;;;;;;5015506;28;20036;-69
2021/05/13 12:55:48;;;;;;;5.05;1.73;;;21.90;55.60;;;;;;5015223;28;20026;-67
2021/05/13 12:58:19;;;;;;;5.53;1.92;;;21.80;55.70;;;;;;5015528;28;20017;-67